sensor_id;sensor_type;location;lat;lon;timestamp;pressure;altitude;pressure_sealevel;temperature;humidity
44481;BME280;30184;42.018;23.670;2023-04-25T00:01:43;90731.53;;;8.96;95.18
44481;BME280;30184;42.018;23.670;2023-04-25T00:04:12;90539.06;;;7.26;95.64
44481;BME280;30184;42.018;23.670;2023-04-25T00:06:43;90643.44;;;8.39;95.61
44481;BME280;30184;42.018;23.670;2023-04-25T00:09:12;90492.03;;;7.27;95.83
44481;BME280;30184;42.018;23.670;2023-04-25T00:11:43;90686.84;;;8.10;97.08
44481;BME280;30184;42.018;23.670;2023-04-25T00:14:13;90971.84;;;9.83;97.35
44481;BME280;30184;42.018;23.670;2023-04-25T00:16:44;90486.72;;;7.36;96.98
44481;BME280;30184;42.018;23.670;2023-04-25T00:19:14;90720.22;;;8.29;96.96
44481;BME280;30184;42.018;23.670;2023-04-25T00:21:44;90656.84;;;8.30;96.89
44481;BME280;30184;42.018;23.670;2023-04-25T00:24:15;90568.75;;;7.98;96.59
44481;BME280;30184;42.018;23.670;2023-04-25T00:26:45;90734.72;;;8.35;96.58
44481;BME280;30184;42.018;23.670;2023-04-25T00:29:14;90899.81;;;9.51;96.55
44481;BME280;30184;42.018;23.670;2023-04-25T00:31:46;90681.59;;;8.76;96.34
44481;BME280;30184;42.018;23.670;2023-04-25T00:34:16;90717.19;;;8.27;96.42
44481;BME280;30184;42.018;23.670;2023-04-25T00:36:46;90712.16;;;8.64;96.53
44481;BME280;30184;42.018;23.670;2023-04-25T00:39:15;90965.72;;;9.70;96.37
44481;BME280;30184;42.018;23.670;2023-04-25T00:41:45;90749.72;;;8.62;96.39
44481;BME280;30184;42.018;23.670;2023-04-25T00:44:16;90510.81;;;7.30;95.93
44481;BME280;30184;42.018;23.670;2023-04-25T00:46:48;90822.19;;;9.01;96.04
44481;BME280;30184;42.018;23.670;2023-04-25T00:49:18;90867.19;;;9.20;96.21
44481;BME280;30184;42.018;23.670;2023-04-25T00:51:48;90618.28;;;8.17;95.72
44481;BME280;30184;42.018;23.670;2023-04-25T00:54:18;90605.59;;;8.05;96.10
44481;BME280;30184;42.018;23.670;2023-04-25T00:56:47;90918.91;;;9.69;96.47
44481;BME280;30184;42.018;23.670;2023-04-25T00:59:19;90827.75;;;9.76;96.55
44481;BME280;30184;42.018;23.670;2023-04-25T01:01:51;90785.56;;;8.75;96.39
44481;BME280;30184;42.018;23.670;2023-04-25T01:04:20;90599.69;;;8.19;97.03
44481;BME280;30184;42.018;23.670;2023-04-25T01:06:51;90860.00;;;9.61;97.60
44481;BME280;30184;42.018;23.670;2023-04-25T01:09:22;90647.88;;;7.86;97.24
44481;BME280;30184;42.018;23.670;2023-04-25T01:11:52;90783.31;;;8.73;97.13
44481;BME280;30184;42.018;23.670;2023-04-25T01:14:22;90785.72;;;8.58;97.02
44481;BME280;30184;42.018;23.670;2023-04-25T01:16:53;90669.53;;;8.68;96.77
44481;BME280;30184;42.018;23.670;2023-04-25T01:19:24;90571.75;;;7.66;96.72
44481;BME280;30184;42.018;23.670;2023-04-25T01:21:55;90604.84;;;8.04;96.46
44481;BME280;30184;42.018;23.670;2023-04-25T01:24:26;90719.56;;;9.07;96.37
44481;BME280;30184;42.018;23.670;2023-04-25T01:26:56;90700.09;;;8.30;96.64
44481;BME280;30184;42.018;23.670;2023-04-25T01:29:28;90635.47;;;7.51;96.67
44481;BME280;30184;42.018;23.670;2023-04-25T01:31:59;90463.38;;;6.82;96.35
44481;BME280;30184;42.018;23.670;2023-04-25T02:07:59;90776.59;;;9.56;95.38
44481;BME280;30184;42.018;23.670;2023-04-25T02:10:30;90779.31;;;9.56;95.06
44481;BME280;30184;42.018;23.670;2023-04-25T02:13:25;90830.44;;;9.32;94.32
44481;BME280;30184;42.018;23.670;2023-04-25T02:15:59;90781.72;;;9.54;93.75
44481;BME280;30184;42.018;23.670;2023-04-25T02:18:30;90807.28;;;9.53;93.66
44481;BME280;30184;42.018;23.670;2023-04-25T02:21:00;90774.03;;;9.52;94.00
44481;BME280;30184;42.018;23.670;2023-04-25T02:23:32;90761.31;;;9.40;94.15
44481;BME280;30184;42.018;23.670;2023-04-25T02:26:01;90763.53;;;9.54;94.31
44481;BME280;30184;42.018;23.670;2023-04-25T02:28:31;90759.75;;;9.52;94.37
44481;BME280;30184;42.018;23.670;2023-04-25T02:31:04;90530.84;;;7.89;93.79
44481;BME280;30184;42.018;23.670;2023-04-25T02:33:34;90767.53;;;9.50;93.97
44481;BME280;30184;42.018;23.670;2023-04-25T02:36:06;90790.00;;;9.38;94.21
44481;BME280;30184;42.018;23.670;2023-04-25T02:38:38;90744.13;;;9.34;94.48
44481;BME280;30184;42.018;23.670;2023-04-25T02:41:07;90758.47;;;9.44;93.96
44481;BME280;30184;42.018;23.670;2023-04-25T02:43:37;90759.25;;;9.44;94.10
44481;BME280;30184;42.018;23.670;2023-04-25T02:46:07;90755.78;;;9.44;94.12
44481;BME280;30184;42.018;23.670;2023-04-25T02:48:36;90761.19;;;9.44;93.89
44481;BME280;30184;42.018;23.670;2023-04-25T02:51:06;90625.91;;;8.44;93.42
44481;BME280;30184;42.018;23.670;2023-04-25T02:53:37;90759.69;;;9.43;93.46
44481;BME280;30184;42.018;23.670;2023-04-25T02:56:06;90748.84;;;9.43;93.44
44481;BME280;30184;42.018;23.670;2023-04-25T02:58:36;90750.91;;;9.39;93.52
44481;BME280;30184;42.018;23.670;2023-04-25T03:01:05;90748.22;;;9.39;93.41
44481;BME280;30184;42.018;23.670;2023-04-25T03:03:35;90739.31;;;9.38;93.50
44481;BME280;30184;42.018;23.670;2023-04-25T03:06:05;90747.88;;;9.36;93.59
44481;BME280;30184;42.018;23.670;2023-04-25T03:08:34;90663.31;;;8.80;93.63
44481;BME280;30184;42.018;23.670;2023-04-25T03:11:05;90732.34;;;9.28;94.72
44481;BME280;30184;42.018;23.670;2023-04-25T03:13:35;90737.00;;;9.27;94.96
44481;BME280;30184;42.018;23.670;2023-04-25T03:16:05;90645.44;;;8.60;95.10
44481;BME280;30184;42.018;23.670;2023-04-25T03:18:35;90734.00;;;9.25;95.36
44481;BME280;30184;42.018;23.670;2023-04-25T03:21:05;90716.19;;;9.15;95.35
44481;BME280;30184;42.018;23.670;2023-04-25T03:37:25;90729.84;;;9.33;96.03
44481;BME280;30184;42.018;23.670;2023-04-25T03:39:55;90751.81;;;9.35;96.01
44481;BME280;30184;42.018;23.670;2023-04-25T03:42:33;90736.19;;;9.40;96.44
44481;BME280;30184;42.018;23.670;2023-04-25T03:45:03;90657.22;;;8.88;96.18
44481;BME280;30184;42.018;23.670;2023-04-25T03:47:33;90747.66;;;9.44;96.18
44481;BME280;30184;42.018;23.670;2023-04-25T03:50:04;90752.63;;;9.45;96.10
44481;BME280;30184;42.018;23.670;2023-04-25T03:52:35;90754.88;;;9.47;95.92
44481;BME280;30184;42.018;23.670;2023-04-25T03:55:05;90748.59;;;9.50;96.03
44481;BME280;30184;42.018;23.670;2023-04-25T03:57:35;90755.06;;;9.52;95.95
44481;BME280;30184;42.018;23.670;2023-04-25T04:00:06;90750.41;;;9.53;95.66
44481;BME280;30184;42.018;23.670;2023-04-25T04:02:41;90743.94;;;9.50;95.33
44481;BME280;30184;42.018;23.670;2023-04-25T04:05:12;90545.41;;;7.57;94.59
44481;BME280;30184;42.018;23.670;2023-04-25T04:07:49;90762.38;;;9.43;94.65
44481;BME280;30184;42.018;23.670;2023-04-25T04:10:18;90755.44;;;9.42;94.80
44481;BME280;30184;42.018;23.670;2023-04-25T04:12:48;90766.84;;;9.36;95.21
44481;BME280;30184;42.018;23.670;2023-04-25T04:15:18;90762.66;;;9.35;95.46
44481;BME280;30184;42.018;23.670;2023-04-25T04:17:49;90765.34;;;9.35;95.50
44481;BME280;30184;42.018;23.670;2023-04-25T04:20:18;90762.66;;;9.35;95.42
44481;BME280;30184;42.018;23.670;2023-04-25T04:22:50;90762.31;;;9.33;94.95
44481;BME280;30184;42.018;23.670;2023-04-25T04:25:20;90755.72;;;9.34;94.94
44481;BME280;30184;42.018;23.670;2023-04-25T04:28:11;90498.34;;;7.58;94.94
44481;BME280;30184;42.018;23.670;2023-04-25T04:31:10;90764.88;;;9.37;95.20
44481;BME280;30184;42.018;23.670;2023-04-25T04:33:45;90766.06;;;9.36;95.35
44481;BME280;30184;42.018;23.670;2023-04-25T04:36:17;90760.66;;;9.36;94.97
44481;BME280;30184;42.018;23.670;2023-04-25T04:38:52;90765.03;;;9.33;94.58
44481;BME280;30184;42.018;23.670;2023-04-25T04:41:32;90766.22;;;9.32;94.85
44481;BME280;30184;42.018;23.670;2023-04-25T04:44:37;90771.75;;;9.29;94.09
44481;BME280;30184;42.018;23.670;2023-04-25T04:47:21;90763.94;;;9.31;94.20
44481;BME280;30184;42.018;23.670;2023-04-25T04:50:17;90735.38;;;9.08;94.19
44481;BME280;30184;42.018;23.670;2023-04-25T04:53:05;90770.69;;;9.26;94.71
44481;BME280;30184;42.018;23.670;2023-04-25T04:55:36;90764.53;;;9.26;94.82
44481;BME280;30184;42.018;23.670;2023-04-25T04:58:21;90766.16;;;9.23;95.10
44481;BME280;30184;42.018;23.670;2023-04-25T05:01:02;90760.75;;;9.23;95.42
44481;BME280;30184;42.018;23.670;2023-04-25T05:03:38;90742.28;;;9.09;95.05
44481;BME280;30184;42.018;23.670;2023-04-25T05:06:28;90758.66;;;9.27;95.28
44481;BME280;30184;42.018;23.670;2023-04-25T05:09:28;90761.69;;;9.29;95.18
44481;BME280;30184;42.018;23.670;2023-04-25T05:12:17;90784.31;;;9.35;94.98
44481;BME280;30184;42.018;23.670;2023-04-25T05:15:06;90750.03;;;9.42;94.85
44481;BME280;30184;42.018;23.670;2023-04-25T05:17:58;90665.44;;;8.85;94.45
44481;BME280;30184;42.018;23.670;2023-04-25T05:20:47;90757.16;;;9.48;94.58
44481;BME280;30184;42.018;23.670;2023-04-25T05:23:34;90751.28;;;9.50;93.48
44481;BME280;30184;42.018;23.670;2023-04-25T05:26:18;90746.50;;;9.54;93.40
44481;BME280;30184;42.018;23.670;2023-04-25T05:29:15;90758.28;;;9.60;92.82
44481;BME280;30184;42.018;23.670;2023-04-25T05:32:03;90763.75;;;9.69;92.74
44481;BME280;30184;42.018;23.670;2023-04-25T05:34:33;90776.97;;;9.67;92.87
44481;BME280;30184;42.018;23.670;2023-04-25T05:37:07;90738.63;;;9.68;92.34
44481;BME280;30184;42.018;23.670;2023-04-25T05:39:48;90703.44;;;9.47;91.95
44481;BME280;30184;42.018;23.670;2023-04-25T05:42:56;90740.22;;;9.88;91.88
44481;BME280;30184;42.018;23.670;2023-04-25T05:45:39;90774.72;;;9.96;91.60
44481;BME280;30184;42.018;23.670;2023-04-25T05:48:31;90679.91;;;9.65;90.92
44481;BME280;30184;42.018;23.670;2023-04-25T05:51:09;90742.56;;;10.07;90.03
44481;BME280;30184;42.018;23.670;2023-04-25T05:53:57;90745.66;;;10.19;89.16
44481;BME280;30184;42.018;23.670;2023-04-25T05:56:27;90741.28;;;10.21;88.32
44481;BME280;30184;42.018;23.670;2023-04-25T05:58:56;90741.31;;;10.30;87.81
44481;BME280;30184;42.018;23.670;2023-04-25T06:01:27;90741.19;;;10.34;86.54
44481;BME280;30184;42.018;23.670;2023-04-25T06:03:57;90703.25;;;10.12;85.50
44481;BME280;30184;42.018;23.670;2023-04-25T06:06:27;90735.44;;;10.32;85.44
44481;BME280;30184;42.018;23.670;2023-04-25T06:08:59;90734.09;;;10.27;85.41
44481;BME280;30184;42.018;23.670;2023-04-25T06:11:31;90738.75;;;10.27;85.77
44481;BME280;30184;42.018;23.670;2023-04-25T06:14:01;90722.75;;;10.20;86.22
44481;BME280;30184;42.018;23.670;2023-04-25T06:16:34;90726.25;;;10.29;86.99
44481;BME280;30184;42.018;23.670;2023-04-25T06:19:03;90729.41;;;10.28;86.22
44481;BME280;30184;42.018;23.670;2023-04-25T06:21:33;90715.94;;;10.15;86.82
44481;BME280;30184;42.018;23.670;2023-04-25T06:24:04;90728.19;;;10.29;86.77
44481;BME280;30184;42.018;23.670;2023-04-25T06:26:34;90729.41;;;10.28;86.35
44481;BME280;30184;42.018;23.670;2023-04-25T06:29:04;90721.44;;;10.33;86.40
44481;BME280;30184;42.018;23.670;2023-04-25T06:31:35;90733.03;;;10.34;86.60
44481;BME280;30184;42.018;23.670;2023-04-25T06:34:05;90734.56;;;10.35;86.64
44481;BME280;30184;42.018;23.670;2023-04-25T06:36:37;90727.94;;;10.36;86.50
44481;BME280;30184;42.018;23.670;2023-04-25T06:39:08;90734.28;;;10.42;86.34
44481;BME280;30184;42.018;23.670;2023-04-25T06:41:38;90737.44;;;10.40;86.36
44481;BME280;30184;42.018;23.670;2023-04-25T06:44:14;90728.28;;;10.56;86.60
44481;BME280;30184;42.018;23.670;2023-04-25T06:46:53;90680.25;;;10.17;85.78
44481;BME280;30184;42.018;23.670;2023-04-25T06:49:23;90709.91;;;10.60;85.65
44481;BME280;30184;42.018;23.670;2023-04-25T06:51:53;90729.38;;;10.86;84.77
44481;BME280;30184;42.018;23.670;2023-04-25T06:54:23;90724.13;;;11.01;84.27
44481;BME280;30184;42.018;23.670;2023-04-25T06:57:01;90708.28;;;10.90;83.39
44481;BME280;30184;42.018;23.670;2023-04-25T06:59:32;90739.50;;;11.31;82.53
44481;BME280;30184;42.018;23.670;2023-04-25T07:02:04;90740.41;;;11.46;80.20
44481;BME280;30184;42.018;23.670;2023-04-25T07:04:34;90721.53;;;11.43;80.42
44481;BME280;30184;42.018;23.670;2023-04-25T07:07:04;90739.19;;;11.75;82.15
44481;BME280;30184;42.018;23.670;2023-04-25T07:09:46;90763.44;;;11.87;81.97
44481;BME280;30184;42.018;23.670;2023-04-25T07:12:15;90709.81;;;11.97;80.93
44481;BME280;30184;42.018;23.670;2023-04-25T07:14:45;90740.38;;;12.25;79.23
44481;BME280;30184;42.018;23.670;2023-04-25T07:17:15;90735.78;;;12.40;79.22
44481;BME280;30184;42.018;23.670;2023-04-25T07:19:46;90737.47;;;12.38;78.39
44481;BME280;30184;42.018;23.670;2023-04-25T07:22:15;90731.69;;;12.45;77.75
44481;BME280;30184;42.018;23.670;2023-04-25T07:24:44;90734.41;;;12.45;78.23
44481;BME280;30184;42.018;23.670;2023-04-25T07:27:19;90727.75;;;12.46;77.44
44481;BME280;30184;42.018;23.670;2023-04-25T07:29:56;90727.59;;;12.49;78.11
44481;BME280;30184;42.018;23.670;2023-04-25T07:32:27;90726.56;;;12.38;78.45
44481;BME280;30184;42.018;23.670;2023-04-25T07:34:56;90733.06;;;12.40;79.92
44481;BME280;30184;42.018;23.670;2023-04-25T07:37:26;90732.13;;;12.43;80.66
44481;BME280;30184;42.018;23.670;2023-04-25T07:40:04;90718.47;;;12.28;79.98
44481;BME280;30184;42.018;23.670;2023-04-25T07:42:34;90730.97;;;12.35;79.93
44481;BME280;30184;42.018;23.670;2023-04-25T07:45:05;90761.16;;;12.04;80.06
44481;BME280;30184;42.018;23.670;2023-04-25T07:47:37;90697.41;;;11.96;80.06
44481;BME280;30184;42.018;23.670;2023-04-25T07:50:08;90721.59;;;12.03;80.84
44481;BME280;30184;42.018;23.670;2023-04-25T07:52:38;90720.19;;;12.08;80.89
44481;BME280;30184;42.018;23.670;2023-04-25T07:55:30;90722.72;;;12.20;81.24
44481;BME280;30184;42.018;23.670;2023-04-25T07:58:11;90713.63;;;12.32;81.64
44481;BME280;30184;42.018;23.670;2023-04-25T08:00:42;90699.38;;;12.38;81.28
44481;BME280;30184;42.018;23.670;2023-04-25T08:03:36;90715.59;;;12.56;81.83
44481;BME280;30184;42.018;23.670;2023-04-25T08:06:10;90689.66;;;12.46;82.45
44481;BME280;30184;42.018;23.670;2023-04-25T08:08:55;90706.97;;;12.81;82.44
44481;BME280;30184;42.018;23.670;2023-04-25T08:11:32;90707.09;;;13.11;83.20
44481;BME280;30184;42.018;23.670;2023-04-25T08:14:02;90699.22;;;13.51;77.46
44481;BME280;30184;42.018;23.670;2023-04-25T08:16:33;90700.25;;;13.83;74.58
44481;BME280;30184;42.018;23.670;2023-04-25T08:19:04;90698.94;;;14.08;76.63
44481;BME280;30184;42.018;23.670;2023-04-25T08:21:34;90701.25;;;14.30;74.43
44481;BME280;30184;42.018;23.670;2023-04-25T08:24:08;90707.84;;;14.52;70.54
44481;BME280;30184;42.018;23.670;2023-04-25T08:26:40;90708.75;;;14.64;70.67
44481;BME280;30184;42.018;23.670;2023-04-25T08:29:12;90697.06;;;14.64;67.33
44481;BME280;30184;42.018;23.670;2023-04-25T08:31:41;90695.78;;;14.79;67.80
44481;BME280;30184;42.018;23.670;2023-04-25T08:34:12;90697.78;;;14.99;67.63
44481;BME280;30184;42.018;23.670;2023-04-25T08:36:48;90693.00;;;15.14;67.75
44481;BME280;30184;42.018;23.670;2023-04-25T08:39:38;90679.91;;;15.18;66.99
44481;BME280;30184;42.018;23.670;2023-04-25T08:42:29;90710.28;;;15.46;64.72
44481;BME280;30184;42.018;23.670;2023-04-25T08:45:02;90671.91;;;15.61;63.15
44481;BME280;30184;42.018;23.670;2023-04-25T08:47:37;90680.56;;;15.54;62.03
44481;BME280;30184;42.018;23.670;2023-04-25T08:50:09;90674.94;;;15.43;60.32
44481;BME280;30184;42.018;23.670;2023-04-25T08:52:44;90684.75;;;15.29;61.35
44481;BME280;30184;42.018;23.670;2023-04-25T08:55:15;90684.50;;;15.73;65.06
44481;BME280;30184;42.018;23.670;2023-04-25T08:57:45;90679.22;;;15.95;63.01
44481;BME280;30184;42.018;23.670;2023-04-25T09:00:17;90689.47;;;16.00;57.56
44481;BME280;30184;42.018;23.670;2023-04-25T09:02:47;90680.94;;;15.93;57.68
44481;BME280;30184;42.018;23.670;2023-04-25T09:05:18;90682.28;;;16.03;57.98
44481;BME280;30184;42.018;23.670;2023-04-25T09:07:52;90658.34;;;15.98;59.51
44481;BME280;30184;42.018;23.670;2023-04-25T09:10:22;90685.97;;;16.00;64.93
44481;BME280;30184;42.018;23.670;2023-04-25T09:13:04;90712.16;;;16.07;60.22
44481;BME280;30184;42.018;23.670;2023-04-25T09:15:48;90673.78;;;16.32;56.74
44481;BME280;30184;42.018;23.670;2023-04-25T09:18:39;90673.78;;;16.32;57.13
44481;BME280;30184;42.018;23.670;2023-04-25T09:21:16;90672.38;;;16.42;54.08
44481;BME280;30184;42.018;23.670;2023-04-25T09:23:49;90665.94;;;16.46;54.32
44481;BME280;30184;42.018;23.670;2023-04-25T09:26:20;90661.13;;;16.35;52.30
44481;BME280;30184;42.018;23.670;2023-04-25T09:29:05;90694.88;;;16.21;55.56
44481;BME280;30184;42.018;23.670;2023-04-25T09:31:38;90686.13;;;16.17;53.03
44481;BME280;30184;42.018;23.670;2023-04-25T09:34:10;90658.84;;;16.28;52.94
44481;BME280;30184;42.018;23.670;2023-04-25T09:36:54;90638.44;;;16.29;50.64
44481;BME280;30184;42.018;23.670;2023-04-25T09:39:57;90638.38;;;16.60;51.32
44481;BME280;30184;42.018;23.670;2023-04-25T09:42:27;90617.91;;;16.50;47.37
44481;BME280;30184;42.018;23.670;2023-04-25T09:45:00;90555.69;;;16.08;47.10
44481;BME280;30184;42.018;23.670;2023-04-25T09:47:37;90641.75;;;16.81;48.90
44481;BME280;30184;42.018;23.670;2023-04-25T09:50:14;90642.03;;;16.83;47.02
44481;BME280;30184;42.018;23.670;2023-04-25T09:53:02;90630.63;;;16.96;47.10
44481;BME280;30184;42.018;23.670;2023-04-25T09:56:14;90652.59;;;17.07;47.22
44481;BME280;30184;42.018;23.670;2023-04-25T09:58:50;90615.50;;;17.17;47.35
44481;BME280;30184;42.018;23.670;2023-04-25T10:01:23;90604.56;;;17.28;44.74
44481;BME280;30184;42.018;23.670;2023-04-25T10:04:05;90593.84;;;17.25;45.83
44481;BME280;30184;42.018;23.670;2023-04-25T10:06:56;90611.78;;;17.20;44.19
44481;BME280;30184;42.018;23.670;2023-04-25T10:09:31;90586.78;;;16.96;46.43
44481;BME280;30184;42.018;23.670;2023-04-25T10:12:04;90725.75;;;16.90;43.09
44481;BME280;30184;42.018;23.670;2023-04-25T10:14:34;90590.97;;;16.86;42.84
44481;BME280;30184;42.018;23.670;2023-04-25T10:17:04;90585.28;;;16.95;45.23
44481;BME280;30184;42.018;23.670;2023-04-25T10:19:34;90587.50;;;16.96;43.98
44481;BME280;30184;42.018;23.670;2023-04-25T10:22:07;90583.75;;;16.88;44.18
44481;BME280;30184;42.018;23.670;2023-04-25T10:24:39;90572.78;;;16.83;44.36
44481;BME280;30184;42.018;23.670;2023-04-25T10:27:10;90567.56;;;16.85;44.81
44481;BME280;30184;42.018;23.670;2023-04-25T10:29:41;90545.81;;;16.70;44.07
44481;BME280;30184;42.018;23.670;2023-04-25T10:32:11;90569.34;;;16.93;42.56
44481;BME280;30184;42.018;23.670;2023-04-25T10:34:42;90538.63;;;16.78;43.38
44481;BME280;30184;42.018;23.670;2023-04-25T10:37:16;90553.72;;;17.22;43.06
44481;BME280;30184;42.018;23.670;2023-04-25T10:39:47;90589.13;;;17.31;41.11
44481;BME280;30184;42.018;23.670;2023-04-25T10:42:17;90546.03;;;17.53;38.56
44481;BME280;30184;42.018;23.670;2023-04-25T10:45:01;90533.09;;;17.65;37.76
44481;BME280;30184;42.018;23.670;2023-04-25T10:47:35;90539.84;;;17.86;38.47
44481;BME280;30184;42.018;23.670;2023-04-25T10:50:09;90521.81;;;18.19;39.92
44481;BME280;30184;42.018;23.670;2023-04-25T10:52:39;90529.03;;;18.27;40.37
44481;BME280;30184;42.018;23.670;2023-04-25T10:55:11;90524.00;;;18.59;38.23
44481;BME280;30184;42.018;23.670;2023-04-25T10:57:42;90447.91;;;18.32;36.25
44481;BME280;30184;42.018;23.670;2023-04-25T11:00:17;90518.16;;;18.85;37.29
44481;BME280;30184;42.018;23.670;2023-04-25T11:02:48;90514.47;;;18.72;37.01
44481;BME280;30184;42.018;23.670;2023-04-25T11:05:22;90521.25;;;18.59;37.88
44481;BME280;30184;42.018;23.670;2023-04-25T11:07:53;90524.97;;;18.56;38.30
44481;BME280;30184;42.018;23.670;2023-04-25T11:10:36;90475.66;;;18.17;37.48
44481;BME280;30184;42.018;23.670;2023-04-25T11:13:06;90503.84;;;18.23;37.18
44481;BME280;30184;42.018;23.670;2023-04-25T11:15:40;90507.63;;;17.98;39.29
44481;BME280;30184;42.018;23.670;2023-04-25T11:18:09;90537.31;;;18.11;40.71
44481;BME280;30184;42.018;23.670;2023-04-25T11:20:43;90359.06;;;16.71;39.48
44481;BME280;30184;42.018;23.670;2023-04-25T11:23:12;90454.25;;;17.10;41.30
44481;BME280;30184;42.018;23.670;2023-04-25T11:25:46;90599.63;;;17.38;42.41
44481;BME280;30184;42.018;23.670;2023-04-25T11:28:21;90550.28;;;17.60;43.02
44481;BME280;30184;42.018;23.670;2023-04-25T11:30:53;90563.97;;;17.43;45.47
44481;BME280;30184;42.018;23.670;2023-04-25T11:33:23;90561.44;;;17.34;46.90
44481;BME280;30184;42.018;23.670;2023-04-25T11:35:54;90535.41;;;16.79;45.51
44481;BME280;30184;42.018;23.670;2023-04-25T11:38:25;90549.00;;;17.39;46.54
44481;BME280;30184;42.018;23.670;2023-04-25T11:40:57;90554.88;;;16.98;45.53
44481;BME280;30184;42.018;23.670;2023-04-25T11:43:27;90562.94;;;17.35;44.80
44481;BME280;30184;42.018;23.670;2023-04-25T11:45:57;90572.19;;;17.32;45.87
44481;BME280;30184;42.018;23.670;2023-04-25T11:48:37;90594.31;;;17.12;45.06
44481;BME280;30184;42.018;23.670;2023-04-25T11:51:07;90288.66;;;14.83;47.32
44481;BME280;30184;42.018;23.670;2023-04-25T11:53:41;90542.28;;;16.58;47.39
44481;BME280;30184;42.018;23.670;2023-04-25T11:56:13;90579.78;;;16.89;46.81
44481;BME280;30184;42.018;23.670;2023-04-25T11:58:57;90595.94;;;16.82;48.41
44481;BME280;30184;42.018;23.670;2023-04-25T12:01:28;90590.50;;;16.93;48.35
44481;BME280;30184;42.018;23.670;2023-04-25T12:04:10;90577.81;;;17.01;47.43
44481;BME280;30184;42.018;23.670;2023-04-25T12:06:41;90561.63;;;17.03;46.96
44481;BME280;30184;42.018;23.670;2023-04-25T12:09:12;90548.44;;;17.07;49.28
44481;BME280;30184;42.018;23.670;2023-04-25T12:11:47;90535.69;;;16.93;46.66
44481;BME280;30184;42.018;23.670;2023-04-25T12:14:21;90502.78;;;16.76;47.12
44481;BME280;30184;42.018;23.670;2023-04-25T12:16:54;90537.47;;;16.96;46.14
44481;BME280;30184;42.018;23.670;2023-04-25T12:19:26;90553.66;;;16.94;45.59
44481;BME280;30184;42.018;23.670;2023-04-25T12:22:03;90431.31;;;16.15;46.06
44481;BME280;30184;42.018;23.670;2023-04-25T12:24:34;90519.97;;;16.82;44.59
44481;BME280;30184;42.018;23.670;2023-04-25T12:27:07;90516.75;;;16.89;44.50
44481;BME280;30184;42.018;23.670;2023-04-25T12:29:37;90521.44;;;16.77;44.42
44481;BME280;30184;42.018;23.670;2023-04-25T12:32:14;90351.06;;;15.32;44.23
44481;BME280;30184;42.018;23.670;2023-04-25T12:34:45;90445.47;;;16.02;42.40
44481;BME280;30184;42.018;23.670;2023-04-25T12:37:15;90517.31;;;16.45;44.07
44481;BME280;30184;42.018;23.670;2023-04-25T12:39:45;90505.88;;;16.52;43.74
44481;BME280;30184;42.018;23.670;2023-04-25T12:42:16;90496.28;;;16.73;42.58
44481;BME280;30184;42.018;23.670;2023-04-25T12:44:46;90500.78;;;16.82;43.30
44481;BME280;30184;42.018;23.670;2023-04-25T12:47:16;90600.72;;;16.92;41.58
44481;BME280;30184;42.018;23.670;2023-04-25T12:49:46;90530.75;;;17.02;43.02
44481;BME280;30184;42.018;23.670;2023-04-25T12:52:16;90472.94;;;16.95;41.65
44481;BME280;30184;42.018;23.670;2023-04-25T12:54:45;90472.94;;;17.00;40.74
44481;BME280;30184;42.018;23.670;2023-04-25T12:57:16;90432.53;;;16.78;39.78
44481;BME280;30184;42.018;23.670;2023-04-25T12:59:45;90462.25;;;17.19;39.77
44481;BME280;30184;42.018;23.670;2023-04-25T13:02:15;90461.25;;;17.33;39.00
44481;BME280;30184;42.018;23.670;2023-04-25T13:04:44;90459.00;;;17.54;38.79
44481;BME280;30184;42.018;23.670;2023-04-25T13:07:14;90464.25;;;17.63;38.50
44481;BME280;30184;42.018;23.670;2023-04-25T13:09:43;90469.75;;;17.69;38.48
44481;BME280;30184;42.018;23.670;2023-04-25T13:12:13;90319.22;;;16.65;38.62
44481;BME280;30184;42.018;23.670;2023-04-25T13:14:44;90452.78;;;17.53;39.66
44481;BME280;30184;42.018;23.670;2023-04-25T13:17:14;90469.50;;;17.67;40.04
44481;BME280;30184;42.018;23.670;2023-04-25T13:19:43;90475.47;;;17.54;38.83
44481;BME280;30184;42.018;23.670;2023-04-25T13:22:12;90505.34;;;17.24;39.69
44481;BME280;30184;42.018;23.670;2023-04-25T13:24:44;90484.16;;;17.08;40.65
44481;BME280;30184;42.018;23.670;2023-04-25T13:27:13;90506.66;;;16.58;43.35
44481;BME280;30184;42.018;23.670;2023-04-25T13:29:44;90524.44;;;16.26;44.41
44481;BME280;30184;42.018;23.670;2023-04-25T13:32:14;90542.47;;;16.01;47.31
44481;BME280;30184;42.018;23.670;2023-04-25T13:34:43;90589.09;;;15.55;49.96
44481;BME280;30184;42.018;23.670;2023-04-25T13:37:13;90565.69;;;15.02;53.02
44481;BME280;30184;42.018;23.670;2023-04-25T13:39:45;90576.09;;;14.78;57.74
44481;BME280;30184;42.018;23.670;2023-04-25T13:42:14;90637.31;;;14.01;58.29
44481;BME280;30184;42.018;23.670;2023-04-25T13:44:47;90528.75;;;13.85;60.56
44481;BME280;30184;42.018;23.670;2023-04-25T13:47:19;90575.38;;;14.22;61.30
44481;BME280;30184;42.018;23.670;2023-04-25T13:49:50;90660.84;;;13.99;62.46
44481;BME280;30184;42.018;23.670;2023-04-25T13:52:19;90549.84;;;14.05;63.86
44481;BME280;30184;42.018;23.670;2023-04-25T13:54:49;90556.13;;;14.11;64.82
44481;BME280;30184;42.018;23.670;2023-04-25T13:57:19;90580.25;;;13.98;66.33
44481;BME280;30184;42.018;23.670;2023-04-25T13:59:51;90514.28;;;12.85;68.33
44481;BME280;30184;42.018;23.670;2023-04-25T14:02:21;90553.59;;;13.72;68.83
44481;BME280;30184;42.018;23.670;2023-04-25T14:04:51;90472.31;;;13.21;68.07
44481;BME280;30184;42.018;23.670;2023-04-25T14:07:22;90556.31;;;13.72;69.50
44481;BME280;30184;42.018;23.670;2023-04-25T14:09:52;90552.28;;;13.68;71.02
44481;BME280;30184;42.018;23.670;2023-04-25T14:12:22;90344.88;;;12.17;68.40
44481;BME280;30184;42.018;23.670;2023-04-25T14:14:54;90559.19;;;13.49;71.17